Time;durP1;ratioP1;P1;durP2;ratioP2;P2;SDS_P1;SDS_P2;PMS_P1;PMS_P2;Temp;Humidity;BMP_temperature;BMP_pressure;BME280_temperature;BME280_humidity;BME280_pressure;Samples;Min_cycle;Max_cycle;Signal;HPM_P1;HPM_P2
2023/08/03 00:01:34;;;;;;;7.40;1.70;;;;;;;16.07;100.00;98878.16;5310484;28;20024;-66
2023/08/03 00:04:05;;;;;;;5.57;1.70;;;;;;;16.09;100.00;98886.84;5320629;28;20419;-66
2023/08/03 00:06:37;;;;;;;4.47;1.80;;;;;;;16.11;100.00;98890.16;5310242;28;20059;-66
2023/08/03 00:09:08;;;;;;;4.82;1.60;;;;;;;16.09;100.00;98889.53;5312991;28;20048;-66
2023/08/03 00:11:39;;;;;;;5.45;1.85;;;;;;;16.08;100.00;98886.00;5307195;28;20367;-66
2023/08/03 00:14:11;;;;;;;6.43;2.40;;;;;;;16.11;100.00;98902.75;5311632;28;20696;-66
2023/08/03 00:16:43;;;;;;;7.40;2.75;;;;;;;16.13;100.00;98903.38;5314495;28;20127;-68
2023/08/03 00:19:14;;;;;;;6.82;3.25;;;;;;;16.05;100.00;98890.94;5318143;28;20034;-66
2023/08/03 00:21:45;;;;;;;7.65;4.40;;;;;;;16.08;100.00;98912.91;5319952;28;20032;-66
2023/08/03 00:24:16;;;;;;;9.32;4.50;;;;;;;16.06;100.00;98903.38;5304450;28;20531;-66
2023/08/03 00:26:48;;;;;;;8.02;5.20;;;;;;;16.06;100.00;98908.75;5314717;28;20525;-66
2023/08/03 00:29:19;;;;;;;10.82;5.60;;;;;;;16.07;100.00;98908.56;5321636;28;20187;-66
2023/08/03 00:31:51;;;;;;;12.43;6.47;;;;;;;16.12;100.00;98907.13;5319795;28;20492;-65
2023/08/03 00:34:22;;;;;;;14.35;6.40;;;;;;;16.03;100.00;98925.28;5317523;28;20031;-66
2023/08/03 00:36:53;;;;;;;12.95;6.80;;;;;;;16.01;100.00;98932.72;5318761;28;20059;-65
2023/08/03 00:39:25;;;;;;;14.00;6.85;;;;;;;16.10;100.00;98936.91;5316941;28;20107;-66
2023/08/03 00:41:56;;;;;;;17.05;8.35;;;;;;;16.13;100.00;98943.75;5321575;28;20563;-66
2023/08/03 00:44:28;;;;;;;18.15;8.40;;;;;;;16.07;100.00;98934.66;5315910;28;20039;-68
2023/08/03 00:46:59;;;;;;;15.48;8.45;;;;;;;16.04;100.00;98953.88;5313116;28;20088;-69
2023/08/03 00:49:30;;;;;;;25.73;9.25;;;;;;;16.22;100.00;98962.25;5310988;28;20367;-70
2023/08/03 00:52:02;;;;;;;13.30;9.00;;;;;;;16.37;100.00;98953.16;5312673;28;20028;-69
2023/08/03 00:54:35;;;;;;;18.70;8.98;;;;;;;16.19;100.00;98959.94;5312665;28;20042;-69
2023/08/03 00:57:06;;;;;;;21.10;9.68;;;;;;;16.05;100.00;98977.03;5309510;28;20023;-70
2023/08/03 00:59:38;;;;;;;20.55;10.32;;;;;;;16.09;100.00;98978.31;5307568;28;20447;-69
2023/08/03 01:02:10;;;;;;;22.35;10.45;;;;;;;16.15;100.00;98990.16;5319891;28;20031;-69
2023/08/03 01:04:41;;;;;;;18.90;10.60;;;;;;;16.28;100.00;98992.91;5306735;28;20110;-69
2023/08/03 01:07:12;;;;;;;22.00;11.23;;;;;;;16.33;100.00;98982.34;5311931;28;20108;-68
2023/08/03 01:09:44;;;;;;;20.30;11.23;;;;;;;16.14;100.00;98994.66;5305690;28;20142;-68
2023/08/03 01:12:16;;;;;;;19.13;11.32;;;;;;;16.21;100.00;98992.03;5319770;28;20396;-67
2023/08/03 01:14:47;;;;;;;22.80;12.70;;;;;;;16.15;100.00;99000.91;5317396;28;20027;-67
2023/08/03 01:17:20;;;;;;;16.98;11.48;;;;;;;16.13;100.00;99001.09;5322818;27;20036;-66
2023/08/03 01:19:52;;;;;;;23.23;11.85;;;;;;;16.12;100.00;99012.88;5314631;28;20027;-67
2023/08/03 01:22:26;;;;;;;19.63;12.40;;;;;;;16.23;100.00;99016.88;5312341;27;20537;-66
2023/08/03 01:24:58;;;;;;;23.05;12.00;;;;;;;16.17;100.00;99023.06;5316552;28;20031;-66
2023/08/03 01:27:29;;;;;;;21.80;12.10;;;;;;;16.16;100.00;99032.97;5319721;27;20032;-66
2023/08/03 01:30:01;;;;;;;20.10;11.07;;;;;;;16.19;100.00;99027.22;5314468;28;20043;-66
2023/08/03 01:32:32;;;;;;;20.33;10.70;;;;;;;16.28;100.00;99033.28;5316779;28;20027;-66
2023/08/03 01:35:06;;;;;;;19.83;10.05;;;;;;;16.27;100.00;99034.28;5309990;28;20028;-66
2023/08/03 01:37:37;;;;;;;19.98;10.52;;;;;;;16.37;100.00;99037.44;5315430;28;20374;-66
2023/08/03 01:40:12;;;;;;;17.42;9.45;;;;;;;16.37;100.00;99042.00;5318703;28;20019;-66
2023/08/03 01:42:44;;;;;;;15.95;9.15;;;;;;;16.35;100.00;99039.50;5317878;28;20115;-66
2023/08/03 01:45:16;;;;;;;15.30;9.00;;;;;;;16.36;100.00;99043.03;5316433;28;20027;-65
2023/08/03 01:47:47;;;;;;;15.27;8.48;;;;;;;16.34;100.00;99035.16;5312126;28;20077;-65
2023/08/03 01:50:18;;;;;;;16.40;8.95;;;;;;;16.31;100.00;99042.78;5307739;28;20036;-65
2023/08/03 01:52:49;;;;;;;12.82;7.60;;;;;;;16.30;100.00;99041.97;5319052;28;20024;-65
2023/08/03 01:55:21;;;;;;;15.95;7.78;;;;;;;16.22;100.00;99032.19;5308264;28;20105;-65
2023/08/03 01:57:52;;;;;;;16.25;6.35;;;;;;;16.26;100.00;99046.06;5316810;28;20027;-65
2023/08/03 02:00:24;;;;;;;14.23;6.30;;;;;;;16.24;100.00;99043.59;5318698;28;20035;-66
2023/08/03 02:02:55;;;;;;;12.60;5.80;;;;;;;16.25;100.00;99042.56;5318481;28;20043;-65
2023/08/03 02:05:26;;;;;;;12.50;5.20;;;;;;;16.21;100.00;99048.53;5321838;27;20317;-66
2023/08/03 02:07:58;;;;;;;10.50;4.45;;;;;;;16.26;100.00;99052.28;5310244;28;20173;-66
2023/08/03 02:10:29;;;;;;;12.38;6.20;;;;;;;16.29;100.00;99050.25;5316157;28;20027;-66
2023/08/03 02:13:00;;;;;;;14.52;6.40;;;;;;;16.31;100.00;99048.19;5317729;28;20027;-66
2023/08/03 02:15:32;;;;;;;13.82;6.65;;;;;;;16.33;100.00;99044.25;5317412;28;20851;-66
2023/08/03 02:18:03;;;;;;;23.50;7.45;;;;;;;16.30;100.00;99043.81;5316459;28;20042;-67
2023/08/03 02:20:34;;;;;;;17.63;7.35;;;;;;;16.20;100.00;99050.41;5315379;28;20031;-66
2023/08/03 02:23:06;;;;;;;22.98;7.20;;;;;;;16.21;100.00;99051.22;5317007;28;20491;-66
2023/08/03 02:25:37;;;;;;;24.50;7.93;;;;;;;16.20;100.00;99050.41;5318367;28;20102;-66
2023/08/03 02:28:08;;;;;;;23.40;7.82;;;;;;;16.24;100.00;99046.28;5319896;28;20503;-66
2023/08/03 02:30:39;;;;;;;19.75;8.18;;;;;;;16.24;100.00;99046.28;5315730;28;20076;-66
2023/08/03 02:33:11;;;;;;;24.23;8.70;;;;;;;16.20;100.00;99050.41;5309173;28;20027;-66
2023/08/03 02:35:42;;;;;;;22.17;8.30;;;;;;;16.18;100.00;99049.75;5300814;28;20387;-66
2023/08/03 02:38:13;;;;;;;20.75;8.40;;;;;;;16.15;100.00;99055.53;5309252;28;20055;-66
2023/08/03 02:40:45;;;;;;;27.55;8.60;;;;;;;16.17;100.00;99048.09;5314199;28;20118;-66
2023/08/03 02:43:16;;;;;;;29.80;8.82;;;;;;;16.20;100.00;99049.56;5319691;28;20024;-66
2023/08/03 02:45:47;;;;;;;20.77;8.13;;;;;;;16.19;100.00;99045.22;5317687;28;20024;-65
2023/08/03 02:48:19;;;;;;;28.42;8.70;;;;;;;16.12;100.00;99034.41;5314847;28;20115;-66
2023/08/03 02:50:50;;;;;;;25.20;8.45;;;;;;;16.20;100.00;99042.34;5307171;28;20050;-66
2023/08/03 02:53:22;;;;;;;26.52;8.73;;;;;;;16.17;100.00;99045.41;5311525;28;20070;-66
2023/08/03 02:55:53;;;;;;;26.45;9.30;;;;;;;16.09;100.00;99053.66;5305286;28;20032;-66
2023/08/03 02:58:24;;;;;;;26.88;9.05;;;;;;;16.15;100.00;99046.66;5316565;28;20055;-66
2023/08/03 03:00:56;;;;;;;24.73;8.65;;;;;;;16.11;100.00;99051.59;5321887;28;20027;-66
2023/08/03 03:03:27;;;;;;;22.48;7.57;;;;;;;16.11;100.00;99046.22;5315667;28;20534;-66
2023/08/03 03:05:58;;;;;;;24.00;7.53;;;;;;;16.06;100.00;99054.84;5315609;28;20019;-66
2023/08/03 03:08:30;;;;;;;25.00;7.53;;;;;;;16.06;100.00;99068.31;5307763;28;20570;-66
2023/08/03 03:11:01;;;;;;;20.98;7.25;;;;;;;16.09;100.00;99072.47;5317339;28;20316;-67
2023/08/03 03:13:32;;;;;;;24.35;7.75;;;;;;;16.10;100.00;99071.44;5316909;28;20099;-66
2023/08/03 03:16:04;;;;;;;25.15;7.60;;;;;;;16.09;100.00;99064.41;5315329;28;20059;-66
2023/08/03 03:18:35;;;;;;;22.80;7.30;;;;;;;16.12;100.00;99076.63;5310582;28;20461;-66
2023/08/03 03:21:06;;;;;;;25.67;7.72;;;;;;;16.09;100.00;99080.56;5313592;28;20043;-67
2023/08/03 03:23:38;;;;;;;21.67;7.88;;;;;;;16.07;100.00;99077.22;5302518;28;20074;-67
2023/08/03 03:26:09;;;;;;;21.88;7.30;;;;;;;16.11;100.00;99075.81;5305211;28;20412;-68
2023/08/03 03:28:41;;;;;;;27.00;7.43;;;;;;;16.08;100.00;99086.94;5305450;28;20494;-67
2023/08/03 03:31:13;;;;;;;22.88;7.60;;;;;;;16.07;100.00;99080.75;5307236;28;20461;-66
2023/08/03 03:33:44;;;;;;;24.45;6.80;;;;;;;16.04;100.00;99083.81;5316354;28;20026;-67
2023/08/03 03:36:15;;;;;;;18.95;7.05;;;;;;;16.06;100.00;99097.06;5317244;28;20501;-67
2023/08/03 03:38:47;;;;;;;21.15;6.72;;;;;;;16.10;100.00;99098.34;5316040;28;20533;-67
2023/08/03 03:41:18;;;;;;;26.77;6.68;;;;;;;16.08;100.00;99105.78;5312411;28;20138;-67
2023/08/03 03:43:49;;;;;;;18.40;6.45;;;;;;;16.10;100.00;99109.09;5316632;28;20028;-67
2023/08/03 03:46:21;;;;;;;16.80;6.25;;;;;;;16.06;100.00;99097.06;5321807;28;20389;-67
2023/08/03 03:48:52;;;;;;;18.15;6.72;;;;;;;16.01;100.00;99111.13;5320289;27;20024;-67
2023/08/03 03:51:24;;;;;;;21.35;6.55;;;;;;;16.05;100.00;99114.22;5318391;27;20454;-67
2023/08/03 03:53:55;;;;;;;14.93;6.10;;;;;;;16.01;100.00;99129.09;5328552;27;20035;-66
2023/08/03 03:56:26;;;;;;;17.67;5.80;;;;;;;15.97;100.00;99130.53;5318313;28;20103;-66
2023/08/03 03:58:57;;;;;;;19.55;6.35;;;;;;;15.94;100.00;99131.75;5316890;28;20031;-67
2023/08/03 04:01:29;;;;;;;15.23;6.13;;;;;;;15.98;100.00;99145.66;5318960;28;20039;-66
2023/08/03 04:04:00;;;;;;;16.17;5.85;;;;;;;15.95;100.00;99146.84;5319633;28;20020;-67
2023/08/03 04:06:31;;;;;;;12.93;5.70;;;;;;;15.96;100.00;99150.41;5323062;28;20024;-66
2023/08/03 04:09:03;;;;;;;18.42;6.10;;;;;;;16.00;100.00;99149.78;5316835;28;20048;-66
2023/08/03 04:11:34;;;;;;;21.77;6.88;;;;;;;15.82;100.00;99146.72;5318951;28;20077;-67
2023/08/03 04:14:06;;;;;;;18.75;6.18;;;;;;;15.83;100.00;99157.31;5309452;28;20020;-67
2023/08/03 04:16:37;;;;;;;19.88;6.18;;;;;;;15.84;100.00;99153.59;5314941;28;20023;-67
2023/08/03 04:19:08;;;;;;;17.63;5.85;;;;;;;15.87;100.00;99163.13;5318960;28;20448;-67
2023/08/03 04:21:40;;;;;;;13.88;6.30;;;;;;;15.84;100.00;99163.53;5308251;28;20031;-67
2023/08/03 04:24:11;;;;;;;14.68;5.97;;;;;;;15.85;100.00;99174.06;5322385;27;20027;-67
2023/08/03 04:26:42;;;;;;;14.70;6.05;;;;;;;15.95;100.00;99172.91;5321180;28;20492;-68
2023/08/03 04:29:14;;;;;;;18.48;6.32;;;;;;;15.89;100.00;99179.91;5320706;28;20092;-68
2023/08/03 04:31:45;;;;;;;14.70;6.10;;;;;;;15.88;100.00;99184.47;5319349;28;20076;-68
2023/08/03 04:34:16;;;;;;;17.75;5.90;;;;;;;15.93;100.00;99185.72;5321445;28;20072;-69
2023/08/03 04:36:48;;;;;;;17.58;6.10;;;;;;;15.90;100.00;99194.19;5317359;28;20023;-69
2023/08/03 04:39:19;;;;;;;16.30;5.80;;;;;;;15.82;100.00;99204.06;5318478;28;20569;-68
2023/08/03 04:41:50;;;;;;;9.63;5.13;;;;;;;15.81;100.00;99207.75;5315756;28;20447;-68
2023/08/03 04:44:22;;;;;;;9.68;5.38;;;;;;;15.83;100.00;99219.16;5314555;27;20051;-68
2023/08/03 04:46:53;;;;;;;13.38;5.60;;;;;;;15.78;100.00;99213.53;5318336;28;20086;-67
2023/08/03 04:49:25;;;;;;;10.48;4.90;;;;;;;15.84;100.00;99218.16;5319130;28;20504;-68
2023/08/03 04:51:57;;;;;;;10.70;4.38;;;;;;;15.86;100.00;99217.97;5311566;28;20023;-67
2023/08/03 04:54:28;;;;;;;8.20;4.22;;;;;;;15.83;100.00;99237.97;5313582;28;20027;-67
2023/08/03 04:56:59;;;;;;;11.68;4.32;;;;;;;15.82;100.00;99228.28;5313370;28;20038;-67
2023/08/03 04:59:31;;;;;;;8.35;4.90;;;;;;;15.80;100.00;99238.38;5317293;28;20031;-67
2023/08/03 05:02:02;;;;;;;8.80;5.25;;;;;;;15.84;100.00;99231.59;5315173;28;20038;-67
2023/08/03 05:04:34;;;;;;;10.13;5.50;;;;;;;15.76;100.00;99237.09;5319370;28;20469;-67
2023/08/03 05:07:05;;;;;;;12.63;5.60;;;;;;;15.82;100.00;99249.78;5314365;28;20453;-67
2023/08/03 05:09:36;;;;;;;9.82;5.43;;;;;;;15.90;100.00;99248.81;5308900;28;20043;-67
2023/08/03 05:12:08;;;;;;;11.10;5.00;;;;;;;15.94;100.00;99255.50;5287889;28;20019;-67
2023/08/03 05:14:39;;;;;;;10.73;4.47;;;;;;;15.96;100.00;99256.13;5317954;28;20030;-67
2023/08/03 05:17:11;;;;;;;8.32;4.13;;;;;;;15.96;100.00;99260.69;5314229;28;20020;-67
2023/08/03 05:19:42;;;;;;;10.77;3.67;;;;;;;15.97;100.00;99256.94;5317399;28;20050;-67
2023/08/03 05:22:13;;;;;;;14.57;3.80;;;;;;;16.00;100.00;99264.66;5313391;28;20028;-67
2023/08/03 05:24:44;;;;;;;8.55;3.40;;;;;;;15.94;100.00;99274.31;5317099;28;20106;-66
2023/08/03 05:27:16;;;;;;;9.23;3.47;;;;;;;15.95;100.00;99281.34;5310659;28;20024;-67
2023/08/03 05:29:48;;;;;;;7.45;3.38;;;;;;;15.99;100.00;99292.56;5317891;28;20028;-67
2023/08/03 05:32:19;;;;;;;12.05;3.45;;;;;;;16.02;100.00;99289.50;5317958;28;20020;-67
2023/08/03 05:34:50;;;;;;;11.60;3.80;;;;;;;16.00;100.00;99288.84;5313510;28;20558;-67
2023/08/03 05:37:22;;;;;;;14.30;4.00;;;;;;;15.95;100.00;99288.59;5307589;28;20212;-68
2023/08/03 05:39:53;;;;;;;11.88;4.47;;;;;;;16.02;100.00;99290.31;5302268;28;21209;-66
2023/08/03 05:42:30;;;;;;;11.80;4.20;;;;;;;16.08;100.00;99297.63;5309569;28;20106;-67
2023/08/03 05:45:09;;;;;;;11.77;4.20;;;;;;;16.15;100.00;99305.78;5312884;28;20031;-66
2023/08/03 05:47:40;;;;;;;16.42;5.03;;;;;;;16.11;100.00;99311.72;5318991;28;20098;-66
2023/08/03 05:50:15;;;;;;;16.33;4.18;;;;;;;16.04;100.00;99309.78;5307717;28;20106;-67
2023/08/03 05:52:47;;;;;;;13.50;3.67;;;;;;;16.04;100.00;99311.66;5316302;28;20472;-66
2023/08/03 05:55:18;;;;;;;14.00;3.60;;;;;;;16.05;100.00;99322.25;5307596;28;20405;-66
2023/08/03 05:57:50;;;;;;;11.80;3.35;;;;;;;16.03;100.00;99326.13;5313634;28;20106;-66
2023/08/03 06:00:21;;;;;;;13.35;3.33;;;;;;;15.98;100.00;99326.72;5316225;28;20031;-66
2023/08/03 06:02:56;;;;;;;11.02;3.58;;;;;;;15.96;100.00;99334.13;5313487;28;20739;-67
2023/08/03 06:05:32;;;;;;;13.35;3.40;;;;;;;16.03;100.00;99339.56;5313668;28;20030;-65
2023/08/03 06:08:19;;;;;;;13.60;3.90;;;;;;;16.13;100.00;99345.50;5315761;28;20106;-66
2023/08/03 06:10:51;;;;;;;12.20;3.50;;;;;;;16.10;100.00;99345.88;5312286;28;20111;-66
2023/08/03 06:13:33;;;;;;;13.57;3.42;;;;;;;16.11;100.00;99350.25;5313049;28;20019;-66
2023/08/03 06:16:10;;;;;;;11.75;3.10;;;;;;;16.17;100.00;99357.56;5307274;28;20094;-66
2023/08/03 06:18:48;;;;;;;13.77;3.67;;;;;;;16.14;100.00;99357.09;5318773;28;20061;-66
2023/08/03 06:21:21;;;;;;;14.52;3.97;;;;;;;16.12;100.00;99359.97;5315594;28;20040;-66
2023/08/03 06:23:54;;;;;;;13.48;3.33;;;;;;;16.11;100.00;99378.97;5311136;28;20036;-66
2023/08/03 06:26:31;;;;;;;14.57;3.55;;;;;;;16.26;100.00;99372.56;5316591;28;20062;-66
2023/08/03 06:29:05;;;;;;;13.23;3.28;;;;;;;16.25;100.00;99375.44;5322761;27;20026;-66
2023/08/03 06:31:39;;;;;;;12.32;3.42;;;;;;;16.27;100.00;99370.69;5305961;28;20035;-66
2023/08/03 06:34:14;;;;;;;13.70;3.38;;;;;;;16.31;100.00;99377.34;5315727;28;20023;-66
2023/08/03 06:36:45;;;;;;;12.35;3.83;;;;;;;16.31;100.00;99368.47;5313304;28;20031;-66
2023/08/03 06:39:16;;;;;;;13.35;3.70;;;;;;;16.33;100.00;99377.16;5314388;28;20016;-67
2023/08/03 06:41:48;;;;;;;11.02;3.92;;;;;;;16.26;100.00;99395.94;5317758;28;20039;-66
2023/08/03 06:44:19;;;;;;;11.57;4.13;;;;;;;16.22;100.00;99398.19;5319012;28;20027;-66
2023/08/03 06:46:52;;;;;;;11.20;4.10;;;;;;;16.31;100.00;99390.00;5318958;28;20027;-68
2023/08/03 06:49:23;;;;;;;13.82;4.03;;;;;;;16.25;100.00;99402.34;5315198;28;20431;-66
2023/08/03 06:51:55;;;;;;;12.90;3.53;;;;;;;16.22;100.00;99408.09;5313474;28;20028;-66
2023/08/03 06:54:26;;;;;;;11.55;4.05;;;;;;;16.20;100.00;99420.91;5315645;28;20305;-66
2023/08/03 06:56:57;;;;;;;15.13;3.40;;;;;;;16.32;100.00;99423.94;5316244;28;20031;-66
2023/08/03 06:59:29;;;;;;;11.48;3.47;;;;;;;16.28;100.00;99426.19;5312544;28;20026;-66
2023/08/03 07:02:00;;;;;;;9.82;2.45;;;;;;;16.36;100.00;99425.25;5316788;28;20110;-66
2023/08/03 07:04:32;;;;;;;7.53;2.50;;;;;;;16.34;100.00;99433.50;5317740;28;20035;-66
2023/08/03 07:07:03;;;;;;;9.80;2.47;;;;;;;16.42;100.00;99438.78;5316876;28;20108;-66
2023/08/03 07:09:35;;;;;;;8.98;2.05;;;;;;;16.31;100.00;99446.50;5311227;28;20060;-66
2023/08/03 07:12:09;;;;;;;7.72;2.60;;;;;;;16.32;100.00;99445.47;5308404;28;20459;-66
2023/08/03 07:14:41;;;;;;;8.95;2.28;;;;;;;16.33;100.00;99456.06;5311472;28;20023;-66
2023/08/03 07:17:12;;;;;;;9.20;2.63;;;;;;;16.39;100.00;99451.78;5317056;28;20027;-66
2023/08/03 07:19:50;;;;;;;8.48;2.78;;;;;;;16.51;100.00;99455.66;5319676;28;20020;-66
2023/08/03 07:22:22;;;;;;;11.32;2.97;;;;;;;16.54;100.00;99462.50;5322206;28;20038;-66
2023/08/03 07:24:54;;;;;;;7.97;2.45;;;;;;;16.51;100.00;99458.34;5321140;28;20055;-66
2023/08/03 07:27:25;;;;;;;8.18;2.63;;;;;;;16.46;100.00;99469.66;5318277;28;20541;-66
2023/08/03 07:29:57;;;;;;;11.77;2.97;;;;;;;16.47;100.00;99467.81;5317103;28;20030;-66
2023/08/03 07:32:28;;;;;;;9.73;3.33;;;;;;;16.57;100.00;99467.53;5320815;28;20118;-66
2023/08/03 07:35:00;;;;;;;12.10;3.55;;;;;;;16.63;100.00;99472.16;5322181;28;20118;-66
2023/08/03 07:37:32;;;;;;;12.20;2.72;;;;;;;16.60;100.00;99477.91;5317733;28;20359;-66
2023/08/03 07:40:03;;;;;;;10.45;3.15;;;;;;;16.70;100.00;99474.91;5321170;28;20062;-66
2023/08/03 07:42:35;;;;;;;11.52;2.53;;;;;;;16.62;100.00;99490.13;5321499;28;20035;-67
2023/08/03 07:45:07;;;;;;;13.65;2.67;;;;;;;16.73;100.00;99486.13;5321371;28;20020;-66
2023/08/03 07:47:38;;;;;;;12.02;2.60;;;;;;;16.69;100.00;99476.75;5306484;28;20027;-66
2023/08/03 07:50:10;;;;;;;9.82;2.50;;;;;;;16.63;100.00;99497.22;5314757;28;20027;-66
2023/08/03 07:52:41;;;;;;;11.27;2.65;;;;;;;16.72;100.00;99489.88;5314821;28;20016;-67
2023/08/03 07:55:12;;;;;;;7.70;2.38;;;;;;;16.80;100.00;99497.81;5320414;28;20031;-66
2023/08/03 07:57:44;;;;;;;11.73;2.45;;;;;;;16.75;100.00;99499.41;5321188;28;20032;-66
2023/08/03 08:00:15;;;;;;;10.85;2.33;;;;;;;16.71;100.00;99503.50;5320380;28;20039;-66
2023/08/03 08:02:46;;;;;;;13.73;2.75;;;;;;;16.73;100.00;99506.84;5310093;28;20023;-66
2023/08/03 08:05:18;;;;;;;11.07;2.80;;;;;;;16.73;100.00;99513.06;5319669;28;20046;-66
2023/08/03 08:07:49;;;;;;;10.90;2.83;;;;;;;16.77;100.00;99517.03;5309339;28;20485;-66
2023/08/03 08:10:20;;;;;;;15.20;3.60;;;;;;;16.70;100.00;99526.91;5310488;28;20035;-66
2023/08/03 08:12:52;;;;;;;10.48;2.47;;;;;;;16.62;100.00;99541.31;5303459;28;20039;-66
2023/08/03 08:15:23;;;;;;;12.20;3.28;;;;;;;16.72;100.00;99542.88;5316797;28;20023;-66
2023/08/03 08:17:55;;;;;;;11.50;2.50;;;;;;;16.72;100.00;99537.47;5316456;27;20038;-66
2023/08/03 08:20:26;;;;;;;11.15;2.83;;;;;;;16.78;100.00;99542.09;5322223;28;20086;-66
2023/08/03 08:22:57;;;;;;;11.05;2.78;;;;;;;16.66;100.00;99547.16;5320953;28;20024;-66
2023/08/03 08:25:35;;;;;;;12.32;2.95;;;;;;;16.68;100.00;99558.56;5322730;28;20027;-65
2023/08/03 08:28:07;;;;;;;11.40;2.60;;;;;;;16.76;100.00;99561.19;5315544;28;20020;-66
2023/08/03 08:30:38;;;;;;;7.63;2.30;;;;;;;16.80;100.00;99567.03;5316553;28;20382;-66
2023/08/03 08:33:10;;;;;;;11.88;2.67;;;;;;;16.76;100.00;99580.03;5301123;28;20066;-66
2023/08/03 08:35:42;;;;;;;10.50;2.50;;;;;;;16.78;100.00;99579.81;5301981;28;20024;-66
2023/08/03 08:38:14;;;;;;;12.52;2.90;;;;;;;16.87;100.00;99585.97;5320838;28;20111;-66
2023/08/03 08:40:45;;;;;;;12.48;2.63;;;;;;;16.87;100.00;99588.66;5314185;28;20035;-65
2023/08/03 08:43:20;;;;;;;11.43;2.20;;;;;;;16.85;100.00;99596.94;5317849;28;20020;-66
2023/08/03 08:45:52;;;;;;;10.55;2.53;;;;;;;16.82;100.00;99597.34;5316022;28;20028;-66
2023/08/03 08:48:23;;;;;;;8.77;2.40;;;;;;;16.82;100.00;99610.81;5319551;28;20092;-66
2023/08/03 08:50:59;;;;;;;10.48;2.42;;;;;;;16.78;100.00;99602.22;5313802;28;20035;-66
2023/08/03 08:53:31;;;;;;;8.48;2.53;;;;;;;16.92;100.00;99603.25;5314015;28;20023;-66
2023/08/03 08:56:02;;;;;;;6.90;1.60;;;;;;;16.97;100.00;99622.38;5314921;28;20024;-66
2023/08/03 08:58:33;;;;;;;6.78;1.60;;;;;;;17.11;100.00;99617.16;5313566;28;20592;-66
2023/08/03 09:01:05;;;;;;;5.97;1.20;;;;;;;17.03;100.00;99624.31;5314915;28;20031;-66
2023/08/03 09:03:51;;;;;;;5.55;1.40;;;;;;;17.03;100.00;99628.88;5314939;28;20020;-66
2023/08/03 09:06:23;;;;;;;4.60;1.38;;;;;;;16.90;100.00;99626.84;5310408;28;20077;-66
2023/08/03 09:08:58;;;;;;;5.95;1.20;;;;;;;16.81;100.00;99644.09;5315459;28;20080;-66
2023/08/03 09:11:39;;;;;;;4.47;1.23;;;;;;;16.81;100.00;99641.41;5305406;28;20035;-66
2023/08/03 09:14:14;;;;;;;4.93;1.38;;;;;;;16.74;100.00;99654.81;5319518;28;20015;-66
2023/08/03 09:16:45;;;;;;;4.30;1.02;;;;;;;16.82;100.00;99667.38;5316760;28;20023;-67
2023/08/03 09:19:34;;;;;;;5.63;1.20;;;;;;;16.83;100.00;99666.34;5319115;28;20082;-67
2023/08/03 09:22:06;;;;;;;3.58;1.20;;;;;;;16.99;100.00;99667.97;5300909;28;20034;-66
2023/08/03 09:24:37;;;;;;;3.55;1.30;;;;;;;17.02;100.00;99678.41;5317085;28;20481;-66
2023/08/03 09:27:15;;;;;;;4.25;1.23;;;;;;;17.10;100.00;99690.94;5320001;28;20030;-66
2023/08/03 09:29:46;;;;;;;4.78;1.17;;;;;;;17.08;100.00;99687.59;5318396;28;20119;-66
2023/08/03 09:32:18;;;;;;;4.00;1.60;;;;;;;17.02;100.00;99690.00;5318770;28;20450;-66
2023/08/03 09:34:49;;;;;;;4.50;1.55;;;;;;;17.06;100.00;99698.53;5316041;28;20027;-66
2023/08/03 09:37:33;;;;;;;6.45;1.88;;;;;;;17.13;100.00;99707.56;5316867;28;20031;-66
2023/08/03 09:40:05;;;;;;;6.27;2.23;;;;;;;17.22;100.00;99714.53;5310478;28;20028;-66
2023/08/03 09:42:37;;;;;;;10.00;2.58;;;;;;;17.22;100.00;99717.22;5320238;28;20385;-66
2023/08/03 09:45:09;;;;;;;9.55;2.40;;;;;;;17.21;100.00;99726.31;5320188;28;20015;-66
2023/08/03 09:47:42;;;;;;;10.90;3.22;;;;;;;17.26;100.00;99717.69;5312763;28;20036;-66
2023/08/03 09:50:13;;;;;;;12.88;2.75;;;;;;;17.35;100.00;99740.78;5313917;28;20102;-66
2023/08/03 09:52:49;;;;;;;9.80;2.88;;;;;;;17.40;100.00;99748.34;5315402;28;20130;-67
2023/08/03 09:55:27;;;;;;;9.30;2.88;;;;;;;17.51;100.00;99747.00;5318794;28;20031;-66
2023/08/03 09:58:09;;;;;;;9.50;3.10;;;;;;;17.56;100.00;99755.34;5315285;28;20027;-66
2023/08/03 10:00:44;;;;;;;11.13;3.08;;;;;;;17.46;100.00;99750.25;5326068;27;20385;-66
2023/08/03 10:03:19;;;;;;;11.82;3.13;;;;;;;17.42;100.00;99757.06;5306346;28;20036;-66
2023/08/03 10:05:55;;;;;;;12.70;3.35;;;;;;;17.45;100.00;99764.78;5306235;28;20028;-66
2023/08/03 10:08:31;;;;;;;12.65;3.40;;;;;;;17.53;100.00;99774.63;5312787;28;20044;-66
2023/08/03 10:11:06;;;;;;;10.95;3.95;;;;;;;17.58;100.00;99780.28;5311512;28;20102;-66
2023/08/03 10:13:41;;;;;;;8.25;2.90;;;;;;;17.61;100.00;99783.44;5311763;28;20020;-66
2023/08/03 10:16:14;;;;;;;15.13;3.53;;;;;;;17.80;100.00;99782.00;5320225;28;20031;-66
2023/08/03 10:18:46;;;;;;;8.40;3.22;;;;;;;17.92;100.00;99785.06;5313265;28;20109;-65
2023/08/03 10:21:18;;;;;;;9.88;3.75;;;;;;;18.10;100.00;99789.16;5312074;28;20470;-67
2023/08/03 10:24:13;;;;;;;9.77;3.05;;;;;;;18.40;100.00;99792.56;5309194;28;20020;-66
2023/08/03 10:26:51;;;;;;;7.45;2.50;;;;;;;18.54;100.00;99783.56;5312097;28;20437;-66
2023/08/03 10:29:51;;;;;;;6.28;2.72;;;;;;;18.81;100.00;99791.88;5308976;28;20028;-66
2023/08/03 10:32:25;;;;;;;6.72;2.22;;;;;;;18.90;100.00;99795.28;5318523;28;20450;-66
2023/08/03 10:35:16;;;;;;;;;;;;;;;19.06;100.00;99794.97;5316550;28;20031;-66
2023/08/03 10:37:49;;;;;;;5.38;2.25;;;;;;;18.98;100.00;99798.69;5314599;28;19915;-66
2023/08/03 10:40:23;;;;;;;7.15;2.40;;;;;;;18.93;100.00;99801.13;5311194;28;20027;-66
2023/08/03 10:43:08;;;;;;;7.03;2.15;;;;;;;18.91;100.00;99797.78;5317777;28;20079;-66
2023/08/03 10:45:40;;;;;;;6.25;2.20;;;;;;;18.83;100.00;99811.47;5315168;28;20065;-66
2023/08/03 10:48:29;;;;;;;8.98;2.63;;;;;;;18.85;100.00;99822.06;5307545;28;20051;-66
2023/08/03 10:51:02;;;;;;;7.70;2.45;;;;;;;18.79;100.00;99804.72;5310455;28;20430;-67
2023/08/03 10:53:34;;;;;;;6.13;2.40;;;;;;;18.83;100.00;99811.47;5318084;28;20081;-67
2023/08/03 10:56:08;;;;;;;6.65;2.20;;;;;;;18.91;100.00;99814.00;5322525;28;20032;-66
2023/08/03 10:58:44;;;;;;;7.93;2.22;;;;;;;19.00;100.00;99820.09;5323611;28;20031;-66
2023/08/03 11:01:23;;;;;;;11.93;3.20;;;;;;;19.02;100.00;99833.41;5313815;28;20114;-66
2023/08/03 11:03:55;;;;;;;8.05;2.08;;;;;;;19.03;100.00;99833.22;5320529;27;20055;-67
2023/08/03 11:06:29;;;;;;;7.78;2.42;;;;;;;18.98;100.00;99832.97;5323526;28;20051;-67
2023/08/03 11:09:01;;;;;;;9.82;2.67;;;;;;;18.95;100.00;99845.03;5322031;28;20100;-67
2023/08/03 11:11:34;;;;;;;6.75;2.20;;;;;;;18.94;100.00;99847.91;5318930;28;20031;-67
2023/08/03 11:14:05;;;;;;;9.02;2.90;;;;;;;18.95;100.00;99845.03;5311705;28;20084;-66
2023/08/03 11:16:37;;;;;;;8.82;2.47;;;;;;;18.90;100.00;99849.34;5319343;28;20028;-67
2023/08/03 11:19:08;;;;;;;10.63;2.90;;;;;;;18.84;100.00;99864.47;5309043;28;20410;-66
2023/08/03 11:21:42;;;;;;;8.65;3.03;;;;;;;18.74;100.00;99866.66;5317109;28;20027;-66
2023/08/03 11:24:13;;;;;;;;;;;;;;;18.82;100.00;99858.44;5317119;28;20038;-68
2023/08/03 11:26:45;;;;;;;9.05;3.90;;;;;;;18.44;100.00;99869.47;5321447;28;19915;-66
2023/08/03 11:29:16;;;;;;;12.98;3.45;;;;;;;18.22;100.00;99876.75;5313743;28;20023;-67
2023/08/03 11:31:48;;;;;;;9.82;3.60;;;;;;;18.13;100.00;99876.00;5319471;28;20046;-67
2023/08/03 11:34:22;;;;;;;10.88;4.22;;;;;;;18.08;100.00;99877.63;5322603;27;20362;-67
2023/08/03 11:36:54;;;;;;;;;;;;;;;18.22;100.00;99891.06;5322292;28;20055;-67
2023/08/03 11:39:25;;;;;;;9.80;3.97;;;;;;;18.22;100.00;99901.88;5302689;28;20411;-66
2023/08/03 11:41:58;;;;;;;9.48;4.55;;;;;;;18.21;100.00;99908.28;5316646;28;20022;-66
2023/08/03 11:44:29;;;;;;;10.75;3.97;;;;;;;18.09;100.00;99912.53;5318114;28;20035;-66